sensor_id;sensor_type;location;lat;lon;timestamp;pressure;altitude;pressure_sealevel;temperature;humidity
58373;BME280;44177;43.356;27.672;2023-05-03T00:02:09;98863.16;;;10.04;88.90
58373;BME280;44177;43.356;27.672;2023-05-03T00:04:35;98854.03;;;10.00;88.45
58373;BME280;44177;43.356;27.672;2023-05-03T00:07:01;98855.47;;;9.98;88.71
58373;BME280;44177;43.356;27.672;2023-05-03T00:09:28;98843.03;;;9.79;89.47
58373;BME280;44177;43.356;27.672;2023-05-03T00:11:53;98836.50;;;9.71;89.79
58373;BME280;44177;43.356;27.672;2023-05-03T00:14:19;98863.25;;;9.69;90.96
58373;BME280;44177;43.356;27.672;2023-05-03T00:16:44;98852.72;;;9.50;91.79
58373;BME280;44177;43.356;27.672;2023-05-03T00:19:10;98846.97;;;9.34;92.68
58373;BME280;44177;43.356;27.672;2023-05-03T00:21:35;98838.19;;;9.28;93.38
58373;BME280;44177;43.356;27.672;2023-05-03T00:24:01;98842.03;;;9.27;93.72
58373;BME280;44177;43.356;27.672;2023-05-03T00:26:27;98843.16;;;9.35;93.57
58373;BME280;44177;43.356;27.672;2023-05-03T00:28:52;98831.28;;;9.31;93.32
58373;BME280;44177;43.356;27.672;2023-05-03T00:31:18;98830.44;;;9.48;92.00
58373;BME280;44177;43.356;27.672;2023-05-03T00:33:43;98832.72;;;9.46;91.38
58373;BME280;44177;43.356;27.672;2023-05-03T00:36:13;98829.50;;;9.44;91.23
58373;BME280;44177;43.356;27.672;2023-05-03T00:38:40;98833.69;;;9.41;91.78
58373;BME280;44177;43.356;27.672;2023-05-03T00:41:08;98825.19;;;9.43;91.34
58373;BME280;44177;43.356;27.672;2023-05-03T00:43:34;98834.63;;;9.54;91.49
58373;BME280;44177;43.356;27.672;2023-05-03T00:46:01;98832.34;;;9.65;90.67
58373;BME280;44177;43.356;27.672;2023-05-03T00:48:28;98827.84;;;9.69;89.65
58373;BME280;44177;43.356;27.672;2023-05-03T00:50:56;98832.19;;;9.61;89.50
58373;BME280;44177;43.356;27.672;2023-05-03T00:53:22;98823.22;;;9.61;89.05
58373;BME280;44177;43.356;27.672;2023-05-03T00:55:51;98811.19;;;9.62;88.39
58373;BME280;44177;43.356;27.672;2023-05-03T00:58:17;98810.25;;;9.49;88.52
58373;BME280;44177;43.356;27.672;2023-05-03T01:00:42;98808.88;;;9.34;88.20
58373;BME280;44177;43.356;27.672;2023-05-03T01:03:08;98815.25;;;9.38;88.19
58373;BME280;44177;43.356;27.672;2023-05-03T01:06:07;98778.94;;;9.16;87.72
58373;BME280;44177;43.356;27.672;2023-05-03T01:08:32;98796.06;;;9.26;87.90
58373;BME280;44177;43.356;27.672;2023-05-03T01:14:09;98803.72;;;9.41;87.02
58373;BME280;44177;43.356;27.672;2023-05-03T01:16:43;98807.25;;;9.33;87.99
58373;BME280;44177;43.356;27.672;2023-05-03T01:19:34;98791.56;;;9.30;88.24
58373;BME280;44177;43.356;27.672;2023-05-03T01:22:11;98796.53;;;9.28;87.87
58373;BME280;44177;43.356;27.672;2023-05-03T01:24:40;98800.69;;;9.25;87.70
58373;BME280;44177;43.356;27.672;2023-05-03T01:27:06;98796.06;;;9.26;87.39
58373;BME280;44177;43.356;27.672;2023-05-03T01:29:33;98802.16;;;9.23;87.61
58373;BME280;44177;43.356;27.672;2023-05-03T01:32:00;98811.78;;;9.11;88.95
58373;BME280;44177;43.356;27.672;2023-05-03T01:34:33;98813.38;;;8.95;89.44
58373;BME280;44177;43.356;27.672;2023-05-03T01:37:03;98830.66;;;8.73;91.38
58373;BME280;44177;43.356;27.672;2023-05-03T01:39:40;98827.25;;;8.49;93.62
58373;BME280;44177;43.356;27.672;2023-05-03T01:42:08;98804.13;;;8.20;95.26
58373;BME280;44177;43.356;27.672;2023-05-03T01:44:35;98805.13;;;8.25;94.01
58373;BME280;44177;43.356;27.672;2023-05-03T01:47:02;98814.53;;;8.27;92.76
58373;BME280;44177;43.356;27.672;2023-05-03T01:49:27;98808.38;;;8.04;93.13
58373;BME280;44177;43.356;27.672;2023-05-03T01:51:53;98808.78;;;7.80;94.54
58373;BME280;44177;43.356;27.672;2023-05-03T01:54:18;98806.31;;;7.61;96.41
58373;BME280;44177;43.356;27.672;2023-05-03T01:56:44;98808.94;;;7.52;97.96
58373;BME280;44177;43.356;27.672;2023-05-03T01:59:11;98801.31;;;7.54;98.53
58373;BME280;44177;43.356;27.672;2023-05-03T02:01:36;98799.88;;;7.56;98.79
58373;BME280;44177;43.356;27.672;2023-05-03T02:04:01;98808.16;;;7.51;99.16
58373;BME280;44177;43.356;27.672;2023-05-03T02:06:27;98796.13;;;7.43;99.65
58373;BME280;44177;43.356;27.672;2023-05-03T02:08:53;98808.34;;;7.55;100.00
58373;BME280;44177;43.356;27.672;2023-05-03T02:11:19;98818.88;;;7.56;100.00
58373;BME280;44177;43.356;27.672;2023-05-03T02:13:47;98811.38;;;7.53;100.00
58373;BME280;44177;43.356;27.672;2023-05-03T02:16:13;98816.81;;;7.53;100.00
58373;BME280;44177;43.356;27.672;2023-05-03T02:18:38;98812.00;;;7.50;100.00
58373;BME280;44177;43.356;27.672;2023-05-03T02:21:03;98818.84;;;7.48;100.00
58373;BME280;44177;43.356;27.672;2023-05-03T02:23:29;98820.28;;;7.45;100.00
58373;BME280;44177;43.356;27.672;2023-05-03T02:25:56;98818.84;;;7.48;100.00
58373;BME280;44177;43.356;27.672;2023-05-03T02:28:22;98821.50;;;7.39;100.00
58373;BME280;44177;43.356;27.672;2023-05-03T02:30:47;98811.44;;;7.39;100.00
58373;BME280;44177;43.356;27.672;2023-05-03T02:33:13;98836.56;;;7.45;100.00
58373;BME280;44177;43.356;27.672;2023-05-03T02:35:38;98819.09;;;7.37;100.00
58373;BME280;44177;43.356;27.672;2023-05-03T02:38:04;98820.88;;;7.42;100.00
58373;BME280;44177;43.356;27.672;2023-05-03T02:40:29;98812.88;;;7.37;100.00
58373;BME280;44177;43.356;27.672;2023-05-03T02:42:55;98820.19;;;7.36;100.00
58373;BME280;44177;43.356;27.672;2023-05-03T02:45:20;98826.13;;;7.38;100.00
58373;BME280;44177;43.356;27.672;2023-05-03T02:47:46;98823.09;;;7.40;100.00
58373;BME280;44177;43.356;27.672;2023-05-03T02:50:11;98829.75;;;7.56;100.00
58373;BME280;44177;43.356;27.672;2023-05-03T02:52:36;98828.03;;;7.61;100.00
58373;BME280;44177;43.356;27.672;2023-05-03T02:55:02;98828.06;;;7.69;100.00
58373;BME280;44177;43.356;27.672;2023-05-03T02:57:27;98825.53;;;7.73;98.55
58373;BME280;44177;43.356;27.672;2023-05-03T02:59:53;98830.69;;;7.83;97.99
58373;BME280;44177;43.356;27.672;2023-05-03T03:02:18;98836.47;;;7.90;96.67
58373;BME280;44177;43.356;27.672;2023-05-03T03:04:44;98832.19;;;7.98;95.81
58373;BME280;44177;43.356;27.672;2023-05-03T03:07:09;98831.72;;;8.05;94.29
58373;BME280;44177;43.356;27.672;2023-05-03T03:09:35;98825.69;;;8.08;92.74
58373;BME280;44177;43.356;27.672;2023-05-03T03:12:01;98828.75;;;8.15;92.35
58373;BME280;44177;43.356;27.672;2023-05-03T03:14:28;98827.81;;;8.29;90.74
58373;BME280;44177;43.356;27.672;2023-05-03T03:16:53;98827.53;;;8.39;89.49
58373;BME280;44177;43.356;27.672;2023-05-03T03:19:19;98825.59;;;8.40;88.79
58373;BME280;44177;43.356;27.672;2023-05-03T03:21:45;98823.69;;;8.40;87.92
58373;BME280;44177;43.356;27.672;2023-05-03T03:24:10;98827.88;;;8.46;87.81
58373;BME280;44177;43.356;27.672;2023-05-03T03:26:36;98840.53;;;8.60;87.22
58373;BME280;44177;43.356;27.672;2023-05-03T03:29:01;98838.47;;;8.65;87.98
58373;BME280;44177;43.356;27.672;2023-05-03T03:31:26;98843.13;;;8.74;88.38
58373;BME280;44177;43.356;27.672;2023-05-03T03:33:52;98841.22;;;8.83;88.45
58373;BME280;44177;43.356;27.672;2023-05-03T03:36:17;98836.41;;;8.89;88.67
58373;BME280;44177;43.356;27.672;2023-05-03T03:38:43;98835.63;;;8.97;87.70
58373;BME280;44177;43.356;27.672;2023-05-03T03:41:08;98848.25;;;9.01;87.92
58373;BME280;44177;43.356;27.672;2023-05-03T03:43:34;98851.66;;;8.98;89.15
58373;BME280;44177;43.356;27.672;2023-05-03T03:46:00;98843.31;;;9.04;89.46
58373;BME280;44177;43.356;27.672;2023-05-03T03:48:25;98860.78;;;9.11;90.14
58373;BME280;44177;43.356;27.672;2023-05-03T03:50:51;98855.00;;;9.22;89.98
58373;BME280;44177;43.356;27.672;2023-05-03T03:53:16;98851.97;;;9.23;89.89
58373;BME280;44177;43.356;27.672;2023-05-03T03:55:42;98851.13;;;9.40;90.05
58373;BME280;44177;43.356;27.672;2023-05-03T03:58:07;98852.38;;;9.52;89.53
58373;BME280;44177;43.356;27.672;2023-05-03T04:00:33;98840.81;;;9.63;88.87
58373;BME280;44177;43.356;27.672;2023-05-03T04:02:59;98847.88;;;9.73;88.58
58373;BME280;44177;43.356;27.672;2023-05-03T04:05:25;98849.59;;;9.87;88.03
58373;BME280;44177;43.356;27.672;2023-05-03T04:07:50;98857.09;;;9.99;87.60
58373;BME280;44177;43.356;27.672;2023-05-03T04:10:16;98851.13;;;10.05;87.13
58373;BME280;44177;43.356;27.672;2023-05-03T04:12:41;98851.38;;;10.21;86.47
58373;BME280;44177;43.356;27.672;2023-05-03T04:15:07;98859.84;;;10.37;85.70
58373;BME280;44177;43.356;27.672;2023-05-03T04:17:33;98859.44;;;10.48;85.38
58373;BME280;44177;43.356;27.672;2023-05-03T04:20:00;98860.13;;;10.66;84.71
58373;BME280;44177;43.356;27.672;2023-05-03T04:22:29;98858.97;;;10.76;84.28
58373;BME280;44177;43.356;27.672;2023-05-03T04:24:55;98846.22;;;10.88;84.14
58373;BME280;44177;43.356;27.672;2023-05-03T04:27:20;98850.47;;;10.98;83.91
58373;BME280;44177;43.356;27.672;2023-05-03T04:29:46;98850.97;;;11.13;83.75
58373;BME280;44177;43.356;27.672;2023-05-03T04:32:13;98809.03;;;10.96;83.54
58373;BME280;44177;43.356;27.672;2023-05-03T04:34:38;98856.06;;;11.23;83.65
58373;BME280;44177;43.356;27.672;2023-05-03T04:37:04;98861.94;;;11.25;83.64
58373;BME280;44177;43.356;27.672;2023-05-03T04:39:30;98862.44;;;11.27;83.93
58373;BME280;44177;43.356;27.672;2023-05-03T04:41:57;98865.63;;;11.29;84.57
58373;BME280;44177;43.356;27.672;2023-05-03T04:44:22;98859.91;;;11.22;85.21
58373;BME280;44177;43.356;27.672;2023-05-03T04:46:48;98860.06;;;11.38;85.85
58373;BME280;44177;43.356;27.672;2023-05-03T04:49:13;98869.28;;;11.33;86.89
58373;BME280;44177;43.356;27.672;2023-05-03T04:51:39;98865.09;;;11.36;86.38
58373;BME280;44177;43.356;27.672;2023-05-03T04:54:04;98875.69;;;11.37;86.25
58373;BME280;44177;43.356;27.672;2023-05-03T04:56:30;98858.97;;;11.18;87.25
58373;BME280;44177;43.356;27.672;2023-05-03T04:58:58;98858.81;;;11.35;87.43
58373;BME280;44177;43.356;27.672;2023-05-03T05:01:24;98871.44;;;11.28;86.21
58373;BME280;44177;43.356;27.672;2023-05-03T05:03:52;98877.41;;;11.42;86.45
58373;BME280;44177;43.356;27.672;2023-05-03T05:06:18;98880.47;;;11.41;85.79
58373;BME280;44177;43.356;27.672;2023-05-03T05:08:43;98874.94;;;11.49;87.23
58373;BME280;44177;43.356;27.672;2023-05-03T05:11:09;98886.13;;;11.57;85.75
58373;BME280;44177;43.356;27.672;2023-05-03T05:13:35;98862.44;;;11.27;85.29
58373;BME280;44177;43.356;27.672;2023-05-03T05:16:00;98892.09;;;11.50;85.36
58373;BME280;44177;43.356;27.672;2023-05-03T05:18:26;98894.06;;;11.49;86.03
58373;BME280;44177;43.356;27.672;2023-05-03T05:20:51;98888.50;;;11.58;85.28
58373;BME280;44177;43.356;27.672;2023-05-03T05:23:18;98890.31;;;11.54;85.80
58373;BME280;44177;43.356;27.672;2023-05-03T05:25:44;98891.69;;;11.60;85.22
58373;BME280;44177;43.356;27.672;2023-05-03T05:28:09;98886.25;;;11.73;84.99
58373;BME280;44177;43.356;27.672;2023-05-03T05:30:35;98887.41;;;11.72;84.15
58373;BME280;44177;43.356;27.672;2023-05-03T05:33:01;98894.28;;;11.78;83.60
58373;BME280;44177;43.356;27.672;2023-05-03T05:35:27;98893.56;;;11.68;84.67
58373;BME280;44177;43.356;27.672;2023-05-03T05:37:53;98889.47;;;11.75;84.52
58373;BME280;44177;43.356;27.672;2023-05-03T05:40:18;98894.97;;;11.87;84.51
58373;BME280;44177;43.356;27.672;2023-05-03T05:42:45;98881.00;;;12.01;84.64
58373;BME280;44177;43.356;27.672;2023-05-03T05:45:12;98885.59;;;12.34;83.46
58373;BME280;44177;43.356;27.672;2023-05-03T05:47:38;98893.72;;;12.43;81.75
58373;BME280;44177;43.356;27.672;2023-05-03T05:50:04;98894.59;;;12.59;82.02
58373;BME280;44177;43.356;27.672;2023-05-03T05:52:29;98890.75;;;12.73;80.70
58373;BME280;44177;43.356;27.672;2023-05-03T05:54:55;98894.16;;;12.82;79.24
58373;BME280;44177;43.356;27.672;2023-05-03T05:57:21;98886.06;;;12.86;79.06
58373;BME280;44177;43.356;27.672;2023-05-03T05:59:46;98902.91;;;13.00;77.64
58373;BME280;44177;43.356;27.672;2023-05-03T06:02:15;98893.31;;;13.06;76.96
58373;BME280;44177;43.356;27.672;2023-05-03T06:04:47;98905.44;;;13.34;76.26
58373;BME280;44177;43.356;27.672;2023-05-03T06:07:13;98914.34;;;13.43;73.41
58373;BME280;44177;43.356;27.672;2023-05-03T06:09:40;98914.03;;;13.32;70.82
58373;BME280;44177;43.356;27.672;2023-05-03T06:12:06;98906.59;;;13.45;68.80
58373;BME280;44177;43.356;27.672;2023-05-03T06:14:32;98916.38;;;13.46;69.17
58373;BME280;44177;43.356;27.672;2023-05-03T06:16:57;98911.97;;;13.29;67.71
58373;BME280;44177;43.356;27.672;2023-05-03T06:19:24;98912.00;;;13.57;67.22
58373;BME280;44177;43.356;27.672;2023-05-03T06:21:50;98911.63;;;13.43;67.84
58373;BME280;44177;43.356;27.672;2023-05-03T06:24:16;98921.84;;;13.46;66.70
58373;BME280;44177;43.356;27.672;2023-05-03T06:26:45;98918.28;;;13.58;66.57
58373;BME280;44177;43.356;27.672;2023-05-03T06:29:11;98919.28;;;14.10;65.55
58373;BME280;44177;43.356;27.672;2023-05-03T06:31:37;98917.88;;;14.32;64.59
58373;BME280;44177;43.356;27.672;2023-05-03T06:34:02;98916.38;;;14.35;61.11
58373;BME280;44177;43.356;27.672;2023-05-03T06:36:28;98920.16;;;14.62;59.80
58373;BME280;44177;43.356;27.672;2023-05-03T06:38:55;98899.28;;;15.09;59.91
58373;BME280;44177;43.356;27.672;2023-05-03T06:41:21;98906.25;;;15.42;56.10
58373;BME280;44177;43.356;27.672;2023-05-03T06:43:46;98908.59;;;15.05;53.68
58373;BME280;44177;43.356;27.672;2023-05-03T06:46:12;98908.97;;;15.03;53.00
58373;BME280;44177;43.356;27.672;2023-05-03T06:48:37;98909.06;;;14.91;53.52
58373;BME280;44177;43.356;27.672;2023-05-03T06:51:03;98894.34;;;14.99;55.97
58373;BME280;44177;43.356;27.672;2023-05-03T06:53:29;98893.53;;;15.34;54.92
58373;BME280;44177;43.356;27.672;2023-05-03T06:55:54;98885.69;;;15.56;51.69
58373;BME280;44177;43.356;27.672;2023-05-03T06:58:20;98875.78;;;15.51;51.18
58373;BME280;44177;43.356;27.672;2023-05-03T07:00:45;98880.63;;;15.58;53.10
58373;BME280;44177;43.356;27.672;2023-05-03T07:03:11;98889.50;;;15.90;50.51
58373;BME280;44177;43.356;27.672;2023-05-03T07:05:36;98884.31;;;16.08;50.61
58373;BME280;44177;43.356;27.672;2023-05-03T07:08:02;98890.19;;;16.30;51.58
58373;BME280;44177;43.356;27.672;2023-05-03T07:10:28;98881.75;;;16.42;50.95
58373;BME280;44177;43.356;27.672;2023-05-03T07:12:55;98888.94;;;16.51;49.95
58373;BME280;44177;43.356;27.672;2023-05-03T07:15:21;98896.22;;;16.39;49.89
58373;BME280;44177;43.356;27.672;2023-05-03T07:17:46;98903.03;;;16.22;50.13
58373;BME280;44177;43.356;27.672;2023-05-03T07:20:12;98900.72;;;16.24;49.51
58373;BME280;44177;43.356;27.672;2023-05-03T07:22:38;98890.50;;;16.25;48.92
58373;BME280;44177;43.356;27.672;2023-05-03T07:25:03;98898.03;;;16.28;48.89
58373;BME280;44177;43.356;27.672;2023-05-03T07:27:29;98890.16;;;16.53;47.13
58373;BME280;44177;43.356;27.672;2023-05-03T07:29:54;98904.06;;;17.14;47.13
58373;BME280;44177;43.356;27.672;2023-05-03T07:32:20;98916.72;;;17.19;47.01
58373;BME280;44177;43.356;27.672;2023-05-03T07:34:46;98904.53;;;17.20;46.16
58373;BME280;44177;43.356;27.672;2023-05-03T07:37:11;98921.06;;;17.20;44.64
58373;BME280;44177;43.356;27.672;2023-05-03T07:39:38;98932.63;;;17.29;42.10
58373;BME280;44177;43.356;27.672;2023-05-03T07:42:03;98924.25;;;17.56;42.63
58373;BME280;44177;43.356;27.672;2023-05-03T07:44:29;98927.50;;;17.96;40.49
58373;BME280;44177;43.356;27.672;2023-05-03T07:46:55;98931.19;;;17.43;38.28
58373;BME280;44177;43.356;27.672;2023-05-03T07:49:20;98946.22;;;17.15;39.31
58373;BME280;44177;43.356;27.672;2023-05-03T07:51:46;98947.63;;;17.05;38.70
58373;BME280;44177;43.356;27.672;2023-05-03T07:54:11;98957.53;;;16.83;36.55
58373;BME280;44177;43.356;27.672;2023-05-03T07:56:37;98951.06;;;17.25;38.29
58373;BME280;44177;43.356;27.672;2023-05-03T07:59:02;98960.56;;;17.58;37.64
58373;BME280;44177;43.356;27.672;2023-05-03T08:01:28;98964.72;;;18.09;37.89
58373;BME280;44177;43.356;27.672;2023-05-03T08:03:53;98972.97;;;18.47;37.57
58373;BME280;44177;43.356;27.672;2023-05-03T08:06:19;98988.41;;;18.52;35.83
58373;BME280;44177;43.356;27.672;2023-05-03T08:08:44;98990.78;;;18.15;35.93
58373;BME280;44177;43.356;27.672;2023-05-03T08:11:10;98995.25;;;18.69;35.84
58373;BME280;44177;43.356;27.672;2023-05-03T08:13:36;99002.53;;;18.91;37.33
58373;BME280;44177;43.356;27.672;2023-05-03T08:16:02;98975.81;;;18.58;35.08
58373;BME280;44177;43.356;27.672;2023-05-03T08:18:27;99001.81;;;18.12;37.78
58373;BME280;44177;43.356;27.672;2023-05-03T08:20:53;98988.91;;;17.89;40.51
58373;BME280;44177;43.356;27.672;2023-05-03T08:23:18;98995.69;;;18.29;39.58
58373;BME280;44177;43.356;27.672;2023-05-03T08:25:46;98993.13;;;18.10;38.71
58373;BME280;44177;43.356;27.672;2023-05-03T08:28:12;98983.75;;;17.53;37.88
58373;BME280;44177;43.356;27.672;2023-05-03T08:30:37;98984.75;;;16.88;38.17
58373;BME280;44177;43.356;27.672;2023-05-03T08:33:03;98980.28;;;16.80;38.16
58373;BME280;44177;43.356;27.672;2023-05-03T08:35:28;98974.50;;;16.62;37.61
58373;BME280;44177;43.356;27.672;2023-05-03T08:37:54;98980.56;;;16.48;39.31
58373;BME280;44177;43.356;27.672;2023-05-03T08:40:20;98990.28;;;16.41;39.41
58373;BME280;44177;43.356;27.672;2023-05-03T08:42:47;98992.34;;;16.25;39.05
58373;BME280;44177;43.356;27.672;2023-05-03T08:45:15;99003.88;;;16.54;40.16
58373;BME280;44177;43.356;27.672;2023-05-03T08:47:44;99010.97;;;16.55;39.65
58373;BME280;44177;43.356;27.672;2023-05-03T08:50:11;98999.53;;;16.53;40.72
58373;BME280;44177;43.356;27.672;2023-05-03T08:52:40;98997.84;;;16.02;38.62
58373;BME280;44177;43.356;27.672;2023-05-03T08:55:07;99007.28;;;16.24;40.40
58373;BME280;44177;43.356;27.672;2023-05-03T08:57:33;98991.47;;;16.90;38.99
58373;BME280;44177;43.356;27.672;2023-05-03T09:00:02;98990.91;;;17.58;37.02
58373;BME280;44177;43.356;27.672;2023-05-03T09:02:35;98976.44;;;17.99;37.62
58373;BME280;44177;43.356;27.672;2023-05-03T09:05:04;98996.38;;;19.09;40.59
58373;BME280;44177;43.356;27.672;2023-05-03T09:07:30;98981.03;;;19.19;31.38
58373;BME280;44177;43.356;27.672;2023-05-03T09:09:55;98972.78;;;20.14;32.61
58373;BME280;44177;43.356;27.672;2023-05-03T09:12:33;98990.00;;;19.68;28.97
58373;BME280;44177;43.356;27.672;2023-05-03T09:15:00;98950.63;;;20.22;32.18
58373;BME280;44177;43.356;27.672;2023-05-03T09:17:25;98963.22;;;19.94;29.30
58373;BME280;44177;43.356;27.672;2023-05-03T09:19:56;98953.41;;;20.54;29.99
58373;BME280;44177;43.356;27.672;2023-05-03T09:22:24;98947.06;;;21.08;28.47
58373;BME280;44177;43.356;27.672;2023-05-03T09:24:54;98944.69;;;21.03;29.67
58373;BME280;44177;43.356;27.672;2023-05-03T09:27:20;98952.09;;;21.53;29.95
58373;BME280;44177;43.356;27.672;2023-05-03T09:29:46;98947.03;;;22.15;28.37
58373;BME280;44177;43.356;27.672;2023-05-03T09:32:13;98943.59;;;21.96;27.07
58373;BME280;44177;43.356;27.672;2023-05-03T09:34:38;98945.25;;;21.79;26.39
58373;BME280;44177;43.356;27.672;2023-05-03T09:37:04;98926.97;;;21.89;28.74
58373;BME280;44177;43.356;27.672;2023-05-03T09:39:31;98945.84;;;21.20;29.55
58373;BME280;44177;43.356;27.672;2023-05-03T09:41:56;98935.13;;;21.29;29.03
58373;BME280;44177;43.356;27.672;2023-05-03T09:44:48;98936.78;;;20.43;29.72
58373;BME280;44177;43.356;27.672;2023-05-03T09:47:16;98935.94;;;21.22;30.14
58373;BME280;44177;43.356;27.672;2023-05-03T09:49:43;98930.28;;;21.51;29.72
58373;BME280;44177;43.356;27.672;2023-05-03T09:52:08;98925.81;;;21.79;29.15
58373;BME280;44177;43.356;27.672;2023-05-03T09:54:34;98921.78;;;21.91;29.59
58373;BME280;44177;43.356;27.672;2023-05-03T09:57:01;98925.81;;;21.79;28.82
58373;BME280;44177;43.356;27.672;2023-05-03T09:59:29;98914.25;;;21.95;27.44
58373;BME280;44177;43.356;27.672;2023-05-03T10:01:59;98918.78;;;22.27;26.85
58373;BME280;44177;43.356;27.672;2023-05-03T10:04:27;98912.09;;;22.21;26.72
58373;BME280;44177;43.356;27.672;2023-05-03T10:06:59;98914.38;;;21.70;27.02
58373;BME280;44177;43.356;27.672;2023-05-03T10:09:46;98906.41;;;21.75;27.20
58373;BME280;44177;43.356;27.672;2023-05-03T10:12:13;98922.22;;;21.86;26.70
58373;BME280;44177;43.356;27.672;2023-05-03T10:14:42;98900.31;;;22.02;26.99
58373;BME280;44177;43.356;27.672;2023-05-03T10:17:14;98898.66;;;22.08;24.99
58373;BME280;44177;43.356;27.672;2023-05-03T10:19:48;98902.38;;;22.47;25.52
58373;BME280;44177;43.356;27.672;2023-05-03T10:22:15;98899.97;;;21.89;25.30
58373;BME280;44177;43.356;27.672;2023-05-03T10:27:21;98896.00;;;21.94;26.12
58373;BME280;44177;43.356;27.672;2023-05-03T10:29:47;98901.53;;;21.94;25.40
58373;BME280;44177;43.356;27.672;2023-05-03T10:35:01;98908.22;;;22.04;26.57
58373;BME280;44177;43.356;27.672;2023-05-03T10:37:27;98913.88;;;22.95;27.21
58373;BME280;44177;43.356;27.672;2023-05-03T10:39:53;98905.84;;;22.06;26.55
58373;BME280;44177;43.356;27.672;2023-05-03T10:42:21;98904.31;;;22.50;26.42
58373;BME280;44177;43.356;27.672;2023-05-03T10:44:54;98900.75;;;21.93;26.90
58373;BME280;44177;43.356;27.672;2023-05-03T10:47:23;98902.19;;;22.16;26.54
58373;BME280;44177;43.356;27.672;2023-05-03T10:55:09;98887.63;;;21.05;27.85
58373;BME280;44177;43.356;27.672;2023-05-03T10:57:37;98903.91;;;20.96;27.83
58373;BME280;44177;43.356;27.672;2023-05-03T11:00:51;98897.06;;;21.33;28.04
58373;BME280;44177;43.356;27.672;2023-05-03T11:05:32;98892.38;;;21.16;27.70
58373;BME280;44177;43.356;27.672;2023-05-03T11:10:34;98882.59;;;21.74;27.21
58373;BME280;44177;43.356;27.672;2023-05-03T11:12:59;98887.31;;;21.85;26.04
58373;BME280;44177;43.356;27.672;2023-05-03T11:15:25;98890.53;;;21.80;27.20
58373;BME280;44177;43.356;27.672;2023-05-03T11:17:50;98871.66;;;22.13;26.94
58373;BME280;44177;43.356;27.672;2023-05-03T11:20:16;98863.81;;;22.53;26.99
58373;BME280;44177;43.356;27.672;2023-05-03T11:22:41;98860.03;;;23.09;26.05
58373;BME280;44177;43.356;27.672;2023-05-03T11:25:07;98834.38;;;23.87;26.83
58373;BME280;44177;43.356;27.672;2023-05-03T11:27:34;98841.03;;;23.65;26.46
58373;BME280;44177;43.356;27.672;2023-05-03T11:30:00;98827.34;;;24.06;25.57
58373;BME280;44177;43.356;27.672;2023-05-03T11:32:26;98826.63;;;23.12;25.70
58373;BME280;44177;43.356;27.672;2023-05-03T11:34:52;98820.41;;;21.65;27.15
58373;BME280;44177;43.356;27.672;2023-05-03T11:37:17;98804.91;;;20.89;28.56
58373;BME280;44177;43.356;27.672;2023-05-03T11:39:43;98816.34;;;21.02;30.21
58373;BME280;44177;43.356;27.672;2023-05-03T11:42:08;98823.53;;;20.74;28.63
58373;BME280;44177;43.356;27.672;2023-05-03T11:44:34;98839.81;;;20.36;27.30
58373;BME280;44177;43.356;27.672;2023-05-03T11:47:02;98845.44;;;19.01;28.27
58373;BME280;44177;43.356;27.672;2023-05-03T11:49:27;98855.88;;;18.62;31.33
58373;BME280;44177;43.356;27.672;2023-05-03T11:51:53;98864.38;;;17.94;31.70
58373;BME280;44177;43.356;27.672;2023-05-03T11:54:20;98854.44;;;17.86;32.49
58373;BME280;44177;43.356;27.672;2023-05-03T11:56:45;98882.75;;;17.79;32.91
58373;BME280;44177;43.356;27.672;2023-05-03T11:59:11;98868.84;;;17.68;32.90
58373;BME280;44177;43.356;27.672;2023-05-03T12:01:37;98867.84;;;17.50;33.90
58373;BME280;44177;43.356;27.672;2023-05-03T12:04:03;98840.97;;;17.40;33.70
58373;BME280;44177;43.356;27.672;2023-05-03T12:06:30;98856.88;;;17.57;34.16
58373;BME280;44177;43.356;27.672;2023-05-03T12:08:58;98841.81;;;17.47;33.97
58373;BME280;44177;43.356;27.672;2023-05-03T12:11:23;98828.50;;;17.19;34.85
58373;BME280;44177;43.356;27.672;2023-05-03T12:14:00;98841.13;;;17.20;34.12
58373;BME280;44177;43.356;27.672;2023-05-03T12:16:26;98837.28;;;17.28;34.22
58373;BME280;44177;43.356;27.672;2023-05-03T12:18:56;98844.38;;;16.99;34.71
58373;BME280;44177;43.356;27.672;2023-05-03T12:21:42;98841.41;;;17.11;36.15
58373;BME280;44177;43.356;27.672;2023-05-03T12:24:08;98847.75;;;17.15;35.16
58373;BME280;44177;43.356;27.672;2023-05-03T12:26:34;98847.91;;;16.96;36.42
58373;BME280;44177;43.356;27.672;2023-05-03T12:28:59;98864.97;;;17.09;36.13
58373;BME280;44177;43.356;27.672;2023-05-03T12:31:25;98859.41;;;17.05;34.57
58373;BME280;44177;43.356;27.672;2023-05-03T12:33:51;98862.34;;;16.89;35.65
58373;BME280;44177;43.356;27.672;2023-05-03T12:36:17;98855.75;;;16.94;36.24
58373;BME280;44177;43.356;27.672;2023-05-03T12:38:43;98869.16;;;16.95;36.86
58373;BME280;44177;43.356;27.672;2023-05-03T12:41:09;98853.03;;;16.97;37.72
58373;BME280;44177;43.356;27.672;2023-05-03T12:43:35;98858.16;;;17.29;37.97
58373;BME280;44177;43.356;27.672;2023-05-03T12:46:01;98865.41;;;17.11;37.24
58373;BME280;44177;43.356;27.672;2023-05-03T12:48:27;98840.13;;;16.74;38.08
58373;BME280;44177;43.356;27.672;2023-05-03T12:50:53;98854.94;;;16.93;38.40
58373;BME280;44177;43.356;27.672;2023-05-03T12:53:19;98852.63;;;16.68;39.36
58373;BME280;44177;43.356;27.672;2023-05-03T12:55:46;98845.94;;;16.69;38.51
58373;BME280;44177;43.356;27.672;2023-05-03T12:58:12;98832.41;;;16.34;38.86
58373;BME280;44177;43.356;27.672;2023-05-03T13:00:38;98833.59;;;16.33;39.29
58373;BME280;44177;43.356;27.672;2023-05-03T13:03:03;98834.94;;;16.42;39.43
58373;BME280;44177;43.356;27.672;2023-05-03T13:05:29;98821.25;;;16.50;39.61
58373;BME280;44177;43.356;27.672;2023-05-03T13:07:55;98813.56;;;16.36;40.19
58373;BME280;44177;43.356;27.672;2023-05-03T13:10:21;98811.50;;;16.02;39.71